Time;durP1;ratioP1;P1;durP2;ratioP2;P2;SDS_P1;SDS_P2;PMS_P1;PMS_P2;Temp;Humidity;BMP_temperature;BMP_pressure;BME280_temperature;BME280_humidity;BME280_pressure;Samples;Min_cycle;Max_cycle;Signal;HPM_P1;HPM_P2
2021/09/21 00:02:00;;;;;;;15.40;9.37;;;;;;;;;;5015827;28;20510;-67
2021/09/21 00:04:29;;;;;;;13.83;9.63;;;;;;;;;;5012689;28;20868;-67
2021/09/21 00:06:55;;;;;;;13.03;8.83;;;;;;;;;;5026087;28;20419;-67
2021/09/21 00:09:22;;;;;;;17.43;9.47;;;;;;;;;;5034053;28;20404;-67
2021/09/21 00:11:48;;;;;;;15.90;10.00;;;;;;;;;;5032229;28;20419;-67
2021/09/21 00:14:14;;;;;;;16.60;9.90;;;;;;;;;;5033278;28;20414;-67
2021/09/21 00:16:40;;;;;;;14.10;10.00;;;;;;;;;;5006476;28;20460;-67
2021/09/21 00:19:06;;;;;;;16.40;10.97;;;;;;;;;;4993803;28;20913;-67
2021/09/21 00:21:32;;;;;;;13.23;10.17;;;;;;;;;;5013371;28;20437;-67
2021/09/21 00:23:58;;;;;;;16.60;11.30;;;;;;;;;;5033136;28;20545;-67
2021/09/21 00:26:25;;;;;;;14.30;10.10;;;;;;;;;;5031437;28;20541;-67
2021/09/21 00:28:51;;;;;;;16.93;10.43;;;;;;;;;;5033047;28;20394;-67
2021/09/21 00:31:18;;;;;;;17.00;10.83;;;;;;;;;;5031179;28;20426;-67
2021/09/21 00:33:54;;;;;;;16.43;10.20;;;;;;;;;;5032886;28;20409;-67
2021/09/21 00:36:20;;;;;;;15.37;10.43;;;;;;;;;;5030929;28;20507;-67
2021/09/21 00:38:46;;;;;;;16.60;10.43;;;;;;;;;;5032937;28;20434;-67
2021/09/21 00:41:13;;;;;;;15.73;10.90;;;;;;;;;;5031619;28;20447;-67
2021/09/21 00:43:39;;;;;;;10.90;8.50;;;;;;;;;;5032832;28;20993;-67
2021/09/21 00:46:06;;;;;;;13.73;8.70;;;;;;;;;;5020754;28;20480;-67
2021/09/21 00:48:32;;;;;;;13.50;9.60;;;;;;;;;;4993626;28;20436;-67
2021/09/21 00:50:58;;;;;;;13.60;9.10;;;;;;;;;;5008758;28;20427;-67
2021/09/21 00:53:26;;;;;;;16.10;9.97;;;;;;;;;;5032877;28;20414;-67
2021/09/21 00:55:52;;;;;;;14.17;8.33;;;;;;;;;;5024969;28;20446;-67
2021/09/21 00:58:18;;;;;;;14.60;8.83;;;;;;;;;;4993489;28;20409;-67
2021/09/21 01:00:44;;;;;;;13.00;8.50;;;;;;;;;;4997059;28;20419;-67
2021/09/21 01:03:10;;;;;;;13.00;8.80;;;;;;;;;;5033163;28;20560;-67
2021/09/21 01:05:36;;;;;;;15.20;9.13;;;;;;;;;;5031153;28;20422;-67
2021/09/21 01:08:03;;;;;;;10.40;7.67;;;;;;;;;;5033045;28;20408;-67
2021/09/21 01:10:31;;;;;;;13.80;8.73;;;;;;;;;;5022651;28;20443;-67
2021/09/21 01:12:57;;;;;;;11.07;8.33;;;;;;;;;;5012356;28;20423;-67
2021/09/21 01:15:23;;;;;;;12.00;8.10;;;;;;;;;;5015135;28;20415;-67
2021/09/21 01:17:50;;;;;;;11.30;8.03;;;;;;;;;;5014761;28;20430;-67
2021/09/21 01:20:35;;;;;;;13.17;7.63;;;;;;;;;;5004262;28;20416;-67
2021/09/21 01:23:02;;;;;;;12.97;8.73;;;;;;;;;;5009436;28;20822;-67
2021/09/21 01:25:28;;;;;;;11.13;8.00;;;;;;;;;;5013177;28;20928;-67
2021/09/21 01:27:54;;;;;;;14.93;8.10;;;;;;;;;;4998420;28;20421;-67
2021/09/21 01:30:20;;;;;;;13.70;8.93;;;;;;;;;;4993865;28;20408;-68
2021/09/21 01:32:46;;;;;;;13.50;9.10;;;;;;;;;;5018064;28;20462;-67
2021/09/21 01:35:13;;;;;;;12.67;8.37;;;;;;;;;;5032635;28;20448;-67
2021/09/21 01:37:40;;;;;;;12.27;7.77;;;;;;;;;;5026970;28;20836;-68
2021/09/21 01:40:07;;;;;;;13.20;7.90;;;;;;;;;;5032487;28;20461;-67
2021/09/21 01:42:33;;;;;;;9.30;7.13;;;;;;;;;;5030493;28;20916;-67
2021/09/21 01:44:59;;;;;;;10.93;6.87;;;;;;;;;;5032708;28;20418;-67
2021/09/21 01:47:25;;;;;;;11.43;7.40;;;;;;;;;;5033155;28;20495;-67
2021/09/21 01:52:47;;;;;;;10.70;7.00;;;;;;;;;;5034010;28;20419;-67
2021/09/21 02:00:16;;;;;;;10.37;6.53;;;;;;;;;;5016478;28;20383;-67
2021/09/21 02:02:43;;;;;;;9.93;6.67;;;;;;;;;;4997337;28;20431;-67
2021/09/21 02:05:09;;;;;;;8.97;6.63;;;;;;;;;;5015887;28;20424;-67
2021/09/21 02:07:35;;;;;;;9.40;6.87;;;;;;;;;;5015139;28;20430;-68
2021/09/21 02:10:01;;;;;;;11.03;7.33;;;;;;;;;;5015116;28;20511;-68
2021/09/21 02:12:28;;;;;;;8.90;6.90;;;;;;;;;;5014104;28;20471;-67
2021/09/21 02:14:58;;;;;;;11.10;6.80;;;;;;;;;;4997941;28;20431;-67
2021/09/21 02:17:24;;;;;;;8.37;6.40;;;;;;;;;;5017321;28;20510;-67
2021/09/21 02:19:50;;;;;;;9.43;6.80;;;;;;;;;;5035197;28;20406;-68
2021/09/21 02:22:16;;;;;;;9.80;7.40;;;;;;;;;;5033383;28;20502;-68
2021/09/21 02:24:42;;;;;;;9.07;6.70;;;;;;;;;;5035093;28;20836;-68
2021/09/21 02:27:08;;;;;;;10.07;6.80;;;;;;;;;;5033294;28;20412;-68
2021/09/21 02:29:34;;;;;;;11.37;6.63;;;;;;;;;;5035181;28;20903;-67
2021/09/21 02:32:00;;;;;;;7.33;5.83;;;;;;;;;;5027565;28;20995;-67
2021/09/21 02:34:26;;;;;;;9.63;6.47;;;;;;;;;;5033874;28;20915;-67
2021/09/21 02:36:52;;;;;;;10.90;7.50;;;;;;;;;;5035337;28;20434;-67
2021/09/21 02:39:19;;;;;;;8.90;6.50;;;;;;;;;;4999393;28;20511;-68
2021/09/21 02:41:45;;;;;;;8.50;6.13;;;;;;;;;;5028849;28;20426;-67
2021/09/21 02:44:11;;;;;;;9.60;6.77;;;;;;;;;;5032764;28;20554;-67
2021/09/21 02:46:37;;;;;;;8.30;5.60;;;;;;;;;;5034761;28;20530;-67
2021/09/21 02:49:03;;;;;;;9.63;7.03;;;;;;;;;;5032937;28;20429;-67
2021/09/21 02:51:29;;;;;;;11.50;6.87;;;;;;;;;;5000542;28;20437;-68
2021/09/21 02:53:55;;;;;;;9.60;6.63;;;;;;;;;;5027959;28;20435;-67
2021/09/21 02:56:21;;;;;;;12.10;7.30;;;;;;;;;;5034632;28;20919;-67
2021/09/21 02:58:47;;;;;;;9.30;7.13;;;;;;;;;;5031437;28;20934;-67
2021/09/21 03:01:14;;;;;;;9.57;7.27;;;;;;;;;;5034619;28;20413;-67
2021/09/21 03:03:47;;;;;;;13.10;7.97;;;;;;;;;;5032643;28;20494;-67
2021/09/21 03:06:48;;;;;;;9.13;7.23;;;;;;;;;;5034360;28;20990;-67
2021/09/21 03:17:39;;;;;;;13.07;8.70;;;;;;;;;;5004470;28;20930;-67
2021/09/21 03:20:05;;;;;;;11.27;8.27;;;;;;;;;;5034222;28;20406;-67
2021/09/21 03:22:31;;;;;;;13.23;8.97;;;;;;;;;;5002135;28;20421;-67
2021/09/21 03:24:58;;;;;;;9.87;6.73;;;;;;;;;;5028805;28;20485;-67
2021/09/21 03:27:24;;;;;;;13.73;7.97;;;;;;;;;;5032312;28;20434;-68
2021/09/21 03:29:50;;;;;;;11.50;7.30;;;;;;;;;;5027510;28;20439;-68
2021/09/21 03:32:16;;;;;;;10.63;7.50;;;;;;;;;;4996269;28;20428;-67
2021/09/21 03:34:42;;;;;;;12.07;8.30;;;;;;;;;;5031040;28;20455;-68
2021/09/21 03:37:09;;;;;;;11.73;7.30;;;;;;;;;;5016710;28;20835;-67
2021/09/21 03:39:36;;;;;;;12.43;8.70;;;;;;;;;;5031975;28;20911;-67
2021/09/21 03:42:02;;;;;;;10.63;6.90;;;;;;;;;;5033864;28;20453;-67
2021/09/21 03:44:28;;;;;;;12.27;7.27;;;;;;;;;;5031642;28;20505;-67
2021/09/21 03:46:55;;;;;;;12.30;7.77;;;;;;;;;;5023762;28;20437;-68
2021/09/21 03:49:21;;;;;;;12.93;8.23;;;;;;;;;;5027653;28;20422;-67
2021/09/21 03:51:47;;;;;;;11.17;7.90;;;;;;;;;;5033716;28;20800;-67
2021/09/21 03:54:13;;;;;;;10.20;6.10;;;;;;;;;;5018133;28;20510;-67
2021/09/21 03:56:40;;;;;;;10.73;6.97;;;;;;;;;;5014102;28;20792;-67
2021/09/21 03:59:07;;;;;;;10.00;6.87;;;;;;;;;;5025172;28;20430;-67
2021/09/21 04:01:33;;;;;;;10.80;7.07;;;;;;;;;;5033533;28;20411;-67
2021/09/21 04:03:59;;;;;;;8.97;7.03;;;;;;;;;;5029003;28;20465;-68
2021/09/21 04:06:26;;;;;;;12.47;8.67;;;;;;;;;;5033639;28;20763;-68
2021/09/21 04:08:52;;;;;;;10.60;7.03;;;;;;;;;;5022394;28;20455;-67
2021/09/21 04:11:18;;;;;;;12.20;7.90;;;;;;;;;;5013719;28;20395;-67
2021/09/21 04:13:45;;;;;;;12.30;7.83;;;;;;;;;;5012805;28;20434;-67
2021/09/21 04:16:11;;;;;;;11.80;7.33;;;;;;;;;;5013462;28;20430;-67
2021/09/21 04:18:37;;;;;;;13.03;7.80;;;;;;;;;;5012459;28;20946;-67
2021/09/21 04:21:03;;;;;;;13.10;8.47;;;;;;;;;;5012377;28;20431;-67
2021/09/21 04:23:30;;;;;;;21.07;10.07;;;;;;;;;;5012464;28;20459;-67
2021/09/21 04:25:56;;;;;;;13.00;9.17;;;;;;;;;;5013442;28;20458;-67
2021/09/21 04:28:22;;;;;;;12.70;8.40;;;;;;;;;;5012389;28;20427;-67
2021/09/21 04:30:49;;;;;;;10.20;7.27;;;;;;;;;;5013448;28;20399;-67
2021/09/21 04:33:15;;;;;;;10.00;7.27;;;;;;;;;;5012488;28;20432;-67
2021/09/21 04:35:42;;;;;;;9.23;7.03;;;;;;;;;;5013344;28;20808;-67
2021/09/21 04:38:08;;;;;;;11.33;7.77;;;;;;;;;;4995991;28;20423;-67
2021/09/21 04:40:34;;;;;;;9.93;6.97;;;;;;;;;;5033196;28;20415;-67
2021/09/21 04:43:00;;;;;;;9.07;7.13;;;;;;;;;;5030750;28;20483;-67
2021/09/21 04:45:26;;;;;;;11.00;7.80;;;;;;;;;;5012989;28;20430;-67
2021/09/21 04:47:52;;;;;;;10.93;8.10;;;;;;;;;;5013241;28;20399;-67
2021/09/21 04:50:18;;;;;;;11.23;7.00;;;;;;;;;;5030954;28;20422;-67
2021/09/21 04:52:45;;;;;;;11.60;7.57;;;;;;;;;;5032960;28;20403;-67
2021/09/21 04:55:11;;;;;;;10.43;7.67;;;;;;;;;;5015155;28;20446;-67
2021/09/21 04:57:37;;;;;;;12.60;8.43;;;;;;;;;;5013340;28;20396;-67
2021/09/21 05:00:04;;;;;;;11.67;8.03;;;;;;;;;;5011217;28;20900;-67
2021/09/21 05:02:30;;;;;;;10.43;6.87;;;;;;;;;;5013203;28;20395;-67
2021/09/21 05:04:56;;;;;;;11.07;7.00;;;;;;;;;;5022424;28;20478;-67
2021/09/21 05:07:22;;;;;;;12.87;8.10;;;;;;;;;;5024598;28;20424;-67
2021/09/21 05:09:48;;;;;;;11.20;7.90;;;;;;;;;;5011747;28;20523;-67
2021/09/21 05:12:14;;;;;;;9.83;7.53;;;;;;;;;;5012824;28;20423;-67
2021/09/21 05:14:40;;;;;;;11.33;8.03;;;;;;;;;;5019498;28;20450;-67
2021/09/21 05:17:06;;;;;;;13.43;7.33;;;;;;;;;;5032609;28;20407;-67
2021/09/21 05:19:32;;;;;;;10.70;7.63;;;;;;;;;;5024442;28;20523;-67
2021/09/21 05:21:58;;;;;;;10.10;6.97;;;;;;;;;;4995335;28;20404;-67
2021/09/21 05:24:24;;;;;;;11.73;8.20;;;;;;;;;;5005630;28;20829;-69
2021/09/21 05:26:50;;;;;;;9.17;5.43;;;;;;;;;;5036400;28;20773;-67
2021/09/21 05:29:17;;;;;;;11.50;6.97;;;;;;;;;;5016898;28;20927;-67
2021/09/21 05:31:43;;;;;;;10.27;6.77;;;;;;;;;;5023859;28;20473;-67
2021/09/21 05:34:09;;;;;;;9.90;6.83;;;;;;;;;;5018398;28;20593;-67
2021/09/21 05:36:35;;;;;;;13.83;7.10;;;;;;;;;;5036229;28;20422;-67
2021/09/21 05:39:01;;;;;;;12.37;7.70;;;;;;;;;;5034144;28;20403;-67
2021/09/21 05:41:27;;;;;;;14.23;7.63;;;;;;;;;;5036068;28;20405;-67
2021/09/21 05:43:53;;;;;;;10.60;6.77;;;;;;;;;;5016271;28;20883;-67
2021/09/21 05:46:19;;;;;;;14.17;8.47;;;;;;;;;;5035813;28;20426;-67
2021/09/21 05:48:45;;;;;;;11.93;7.50;;;;;;;;;;5035970;28;20461;-67
2021/09/21 05:51:11;;;;;;;11.57;8.23;;;;;;;;;;5034179;28;20435;-67
2021/09/21 05:53:37;;;;;;;10.83;6.90;;;;;;;;;;5035804;28;20403;-67
2021/09/21 05:56:03;;;;;;;12.47;7.40;;;;;;;;;;5033910;28;20461;-67
2021/09/21 05:58:29;;;;;;;9.27;6.23;;;;;;;;;;5035824;28;20441;-67
2021/09/21 06:00:57;;;;;;;9.87;7.30;;;;;;;;;;5011356;28;20428;-67
2021/09/21 06:03:24;;;;;;;10.30;7.20;;;;;;;;;;5015508;28;21020;-67
2021/09/21 06:05:50;;;;;;;10.90;7.07;;;;;;;;;;5033547;28;20446;-67
2021/09/21 06:08:16;;;;;;;10.80;7.40;;;;;;;;;;5036227;28;20395;-67
2021/09/21 06:10:42;;;;;;;8.90;6.70;;;;;;;;;;5033622;28;20438;-67
2021/09/21 06:13:08;;;;;;;11.77;7.50;;;;;;;;;;5035766;28;20403;-67
2021/09/21 06:15:34;;;;;;;9.17;7.13;;;;;;;;;;5015746;28;20455;-67
2021/09/21 06:18:01;;;;;;;10.50;6.83;;;;;;;;;;5035450;28;20403;-67
2021/09/21 06:20:27;;;;;;;12.50;7.63;;;;;;;;;;5033368;28;20429;-67
2021/09/21 06:22:53;;;;;;;10.63;7.10;;;;;;;;;;4996788;28;20450;-66
2021/09/21 06:25:19;;;;;;;10.90;7.53;;;;;;;;;;5038374;23;20561;-73
2021/09/21 06:27:45;;;;;;;10.70;7.63;;;;;;;;;;5035059;28;20404;-71
2021/09/21 06:30:13;;;;;;;13.40;9.47;;;;;;;;;;5024954;28;20490;-71
2021/09/21 06:32:39;;;;;;;15.77;9.43;;;;;;;;;;5015142;28;20396;-71
2021/09/21 06:35:06;;;;;;;10.03;7.17;;;;;;;;;;5026501;28;20465;-71
2021/09/21 06:37:33;;;;;;;11.27;7.87;;;;;;;;;;5026216;28;20415;-71
2021/09/21 06:39:59;;;;;;;16.60;9.80;;;;;;;;;;5020914;28;20918;-71
2021/09/21 06:42:25;;;;;;;16.30;9.90;;;;;;;;;;5034822;28;20815;-71
2021/09/21 06:44:51;;;;;;;18.27;11.63;;;;;;;;;;5027393;28;20460;-71
2021/09/21 06:47:17;;;;;;;12.30;8.67;;;;;;;;;;5015085;28;20473;-71
2021/09/21 06:49:44;;;;;;;15.13;9.77;;;;;;;;;;5018618;28;20989;-71
2021/09/21 06:52:10;;;;;;;18.00;10.57;;;;;;;;;;5034918;28;20406;-71
2021/09/21 06:54:36;;;;;;;16.10;10.67;;;;;;;;;;5032708;28;20497;-71
2021/09/21 06:57:02;;;;;;;15.53;10.10;;;;;;;;;;5034421;28;20429;-71
2021/09/21 06:59:28;;;;;;;14.73;8.67;;;;;;;;;;5032347;28;21570;-71
2021/09/21 07:01:55;;;;;;;14.40;9.60;;;;;;;;;;5034683;28;20399;-72
2021/09/21 07:04:21;;;;;;;16.67;10.60;;;;;;;;;;5032448;28;20468;-72
2021/09/21 07:06:47;;;;;;;15.03;9.33;;;;;;;;;;5016537;28;20514;-71
2021/09/21 07:09:13;;;;;;;12.50;9.07;;;;;;;;;;5033355;28;20403;-72
2021/09/21 07:11:39;;;;;;;18.10;9.00;;;;;;;;;;5033546;28;20593;-72
2021/09/21 07:14:05;;;;;;;14.23;8.97;;;;;;;;;;5034261;28;20395;-72
2021/09/21 07:16:31;;;;;;;15.70;9.43;;;;;;;;;;5032331;28;20458;-72
2021/09/21 07:18:57;;;;;;;12.80;9.20;;;;;;;;;;5016589;28;20814;-72
2021/09/21 07:21:23;;;;;;;20.23;9.27;;;;;;;;;;5015725;28;20458;-72
2021/09/21 07:23:49;;;;;;;13.97;9.20;;;;;;;;;;5014361;28;20496;-72
2021/09/21 07:26:16;;;;;;;13.00;9.30;;;;;;;;;;5011667;28;20539;-72
2021/09/21 07:28:42;;;;;;;14.87;9.60;;;;;;;;;;5014370;28;20427;-72
2021/09/21 07:31:08;;;;;;;13.03;8.27;;;;;;;;;;5027902;28;20472;-72
2021/09/21 07:33:34;;;;;;;19.70;8.50;;;;;;;;;;5015717;28;20415;-72
2021/09/21 07:36:00;;;;;;;16.07;8.27;;;;;;;;;;5005594;28;20451;-77
2021/09/21 07:38:26;;;;;;;13.40;9.17;;;;;;;;;;5009865;28;20419;-73
2021/09/21 07:40:53;;;;;;;11.23;8.13;;;;;;;;;;5011537;28;20427;-73
2021/09/21 07:43:19;;;;;;;12.07;7.83;;;;;;;;;;5018399;28;20973;-73
2021/09/21 07:45:45;;;;;;;10.53;8.00;;;;;;;;;;5003931;28;20451;-72
2021/09/21 07:48:17;;;;;;;11.23;8.13;;;;;;;;;;5013354;28;20416;-73
2021/09/21 07:50:43;;;;;;;8.63;6.70;;;;;;;;;;5006596;28;20944;-72
2021/09/21 07:53:09;;;;;;;11.80;7.80;;;;;;;;;;5012445;28;20764;-72
2021/09/21 07:55:35;;;;;;;11.83;7.73;;;;;;;;;;5012735;28;20446;-72
2021/09/21 07:58:01;;;;;;;10.77;7.90;;;;;;;;;;5011884;28;20786;-73
2021/09/21 08:00:27;;;;;;;12.40;8.77;;;;;;;;;;5011288;28;20449;-72
2021/09/21 08:02:53;;;;;;;11.40;8.40;;;;;;;;;;5009052;28;20427;-72
2021/09/21 08:05:20;;;;;;;14.10;8.47;;;;;;;;;;5004314;28;20598;-72
2021/09/21 08:07:47;;;;;;;11.77;8.57;;;;;;;;;;5007424;28;20424;-75
2021/09/21 08:10:13;;;;;;;10.83;7.27;;;;;;;;;;5008047;28;20428;-72
2021/09/21 08:12:40;;;;;;;19.57;7.80;;;;;;;;;;5022276;28;20443;-72
2021/09/21 08:15:07;;;;;;;11.20;8.00;;;;;;;;;;5010315;28;20443;-75
2021/09/21 08:17:33;;;;;;;11.70;8.73;;;;;;;;;;5011568;28;20415;-71
2021/09/21 08:19:59;;;;;;;17.37;12.30;;;;;;;;;;5013153;28;20419;-72
2021/09/21 08:22:26;;;;;;;13.83;9.27;;;;;;;;;;5010607;28;20422;-72
2021/09/21 08:24:52;;;;;;;12.87;9.20;;;;;;;;;;5011569;28;20455;-72
2021/09/21 08:27:19;;;;;;;10.70;7.93;;;;;;;;;;4989528;28;20474;-72
2021/09/21 08:29:45;;;;;;;11.37;8.67;;;;;;;;;;5008358;28;20967;-72
2021/09/21 08:32:11;;;;;;;12.10;7.70;;;;;;;;;;5010123;28;20486;-73
2021/09/21 08:34:37;;;;;;;13.23;8.93;;;;;;;;;;5012051;28;20780;-72
2021/09/21 08:37:03;;;;;;;12.10;9.10;;;;;;;;;;5008116;28;20468;-72
2021/09/21 08:39:29;;;;;;;15.50;9.20;;;;;;;;;;5008555;28;20507;-72
2021/09/21 08:41:56;;;;;;;12.77;9.70;;;;;;;;;;5016740;28;20458;-72
2021/09/21 08:44:22;;;;;;;16.30;9.60;;;;;;;;;;5010858;28;20853;-72
2021/09/21 08:46:48;;;;;;;13.27;8.80;;;;;;;;;;5009149;28;20959;-72
2021/09/21 08:49:16;;;;;;;12.10;9.70;;;;;;;;;;5010564;28;20430;-73
2021/09/21 08:51:42;;;;;;;11.80;9.50;;;;;;;;;;5011546;28;20423;-72
2021/09/21 08:54:08;;;;;;;11.20;8.80;;;;;;;;;;5010970;28;20923;-72
2021/09/21 08:56:34;;;;;;;14.40;9.03;;;;;;;;;;5005501;28;20861;-74
2021/09/21 08:59:04;;;;;;;12.57;8.70;;;;;;;;;;5015200;28;20986;-72
2021/09/21 09:01:49;;;;;;;10.80;7.93;;;;;;;;;;5012098;28;20472;-72
2021/09/21 09:04:16;;;;;;;12.13;8.70;;;;;;;;;;5015095;28;20550;-71
2021/09/21 09:06:46;;;;;;;17.90;12.60;;;;;;;;;;5014190;28;20487;-72
2021/09/21 09:09:21;;;;;;;13.90;8.50;;;;;;;;;;5012232;28;20446;-72
2021/09/21 09:11:48;;;;;;;11.97;9.50;;;;;;;;;;5010624;28;20838;-73
2021/09/21 09:14:24;;;;;;;18.23;9.97;;;;;;;;;;5012443;28;20439;-72
2021/09/21 09:17:00;;;;;;;12.97;9.23;;;;;;;;;;5012679;28;20492;-71
2021/09/21 09:19:49;;;;;;;12.10;8.70;;;;;;;;;;5012794;28;20446;-72
2021/09/21 09:22:17;;;;;;;11.37;9.23;;;;;;;;;;5012078;28;20434;-72
2021/09/21 09:24:50;;;;;;;12.50;9.03;;;;;;;;;;5013117;28;20467;-72
2021/09/21 09:27:16;;;;;;;13.43;8.50;;;;;;;;;;5012479;28;20866;-73
2021/09/21 09:29:59;;;;;;;13.83;9.00;;;;;;;;;;5013424;28;20463;-72
2021/09/21 09:32:25;;;;;;;11.67;9.00;;;;;;;;;;5009422;28;20544;-72
2021/09/21 09:34:51;;;;;;;15.23;9.13;;;;;;;;;;5013911;28;20423;-72
2021/09/21 09:37:18;;;;;;;11.50;8.77;;;;;;;;;;5010016;28;20419;-74
2021/09/21 09:39:45;;;;;;;10.40;8.20;;;;;;;;;;5010990;28;20754;-74
2021/09/21 09:42:13;;;;;;;13.47;8.40;;;;;;;;;;5015317;28;20514;-72
2021/09/21 09:44:39;;;;;;;12.70;9.57;;;;;;;;;;5014015;28;20450;-75
2021/09/21 09:47:07;;;;;;;11.10;9.37;;;;;;;;;;5012008;28;20510;-70
2021/09/21 09:49:41;;;;;;;10.90;7.70;;;;;;;;;;5012076;28;20426;-72
2021/09/21 09:52:08;;;;;;;10.37;8.27;;;;;;;;;;5011745;28;20419;-71
2021/09/21 09:54:35;;;;;;;10.60;7.97;;;;;;;;;;5013757;28;20520;-71
2021/09/21 09:57:02;;;;;;;11.27;8.67;;;;;;;;;;5010944;28;20443;-72
2021/09/21 09:59:29;;;;;;;10.80;8.50;;;;;;;;;;5010098;28;20438;-70
2021/09/21 10:01:55;;;;;;;15.00;8.70;;;;;;;;;;5008750;28;20420;-70
2021/09/21 10:04:22;;;;;;;8.33;6.27;;;;;;;;;;5009501;28;20818;-70
2021/09/21 10:06:48;;;;;;;14.07;8.80;;;;;;;;;;5003604;28;20546;-70
2021/09/21 10:09:15;;;;;;;7.63;6.83;;;;;;;;;;5015003;28;20472;-70
2021/09/21 10:11:43;;;;;;;10.53;8.57;;;;;;;;;;5015176;28;20926;-70
2021/09/21 10:14:10;;;;;;;12.97;9.60;;;;;;;;;;5012379;28;20419;-70
2021/09/21 10:16:45;;;;;;;11.70;9.43;;;;;;;;;;5014148;28;20443;-70
2021/09/21 10:19:17;;;;;;;9.90;8.17;;;;;;;;;;5014485;28;20772;-70
2021/09/21 10:21:46;;;;;;;9.67;7.37;;;;;;;;;;5010068;28;20423;-70
2021/09/21 10:24:12;;;;;;;14.17;8.20;;;;;;;;;;5013555;28;20455;-70
2021/09/21 10:26:40;;;;;;;14.17;8.63;;;;;;;;;;5010458;28;20454;-70
2021/09/21 10:29:06;;;;;;;10.57;7.70;;;;;;;;;;5010367;28;20729;-70
2021/09/21 10:31:34;;;;;;;11.00;8.40;;;;;;;;;;5013960;28;20722;-70
2021/09/21 10:34:10;;;;;;;11.40;8.90;;;;;;;;;;5034601;28;20417;-70
2021/09/21 10:36:45;;;;;;;11.70;8.80;;;;;;;;;;5032302;28;20434;-70
2021/09/21 10:39:11;;;;;;;13.00;9.37;;;;;;;;;;5018427;28;20483;-70
2021/09/21 10:41:49;;;;;;;16.67;10.70;;;;;;;;;;5010103;28;20897;-69
2021/09/21 10:44:16;;;;;;;9.97;8.63;;;;;;;;;;5009230;28;20459;-70
2021/09/21 10:46:50;;;;;;;11.53;8.63;;;;;;;;;;5009450;28;20464;-69
2021/09/21 10:49:28;;;;;;;11.37;8.97;;;;;;;;;;5010714;28;20929;-70
2021/09/21 10:51:56;;;;;;;12.17;9.53;;;;;;;;;;5009643;28;20515;-70
2021/09/21 10:54:29;;;;;;;11.60;9.10;;;;;;;;;;5011182;28;20423;-70
2021/09/21 10:57:03;;;;;;;10.90;8.50;;;;;;;;;;5009341;28;20468;-70
2021/09/21 10:59:30;;;;;;;13.70;9.60;;;;;;;;;;5012651;28;20754;-70
2021/09/21 11:01:56;;;;;;;13.27;9.57;;;;;;;;;;5008792;28;20794;-70
2021/09/21 11:04:23;;;;;;;12.30;9.10;;;;;;;;;;5013148;28;20466;-70
2021/09/21 11:06:49;;;;;;;12.20;8.93;;;;;;;;;;5016278;28;20797;-70
2021/09/21 11:09:25;;;;;;;12.20;8.50;;;;;;;;;;5011877;28;20503;-70
2021/09/21 11:11:51;;;;;;;26.97;10.07;;;;;;;;;;5008478;28;20451;-70
2021/09/21 11:14:20;;;;;;;11.93;8.37;;;;;;;;;;5014075;28;20459;-71
2021/09/21 11:16:55;;;;;;;13.83;9.20;;;;;;;;;;5011602;28;20455;-70
2021/09/21 11:19:28;;;;;;;11.23;9.27;;;;;;;;;;5006513;28;20538;-70
2021/09/21 11:22:07;;;;;;;13.50;9.07;;;;;;;;;;5013107;28;20420;-70
2021/09/21 11:24:34;;;;;;;10.23;7.67;;;;;;;;;;5010693;28;20455;-70
2021/09/21 11:27:01;;;;;;;11.97;9.20;;;;;;;;;;5012622;28;20452;-70
2021/09/21 11:29:27;;;;;;;10.93;8.60;;;;;;;;;;5011651;28;20427;-69
2021/09/21 11:31:53;;;;;;;10.13;8.47;;;;;;;;;;5009423;28;20441;-71
2021/09/21 11:34:21;;;;;;;13.53;8.97;;;;;;;;;;5010455;28;20834;-70
2021/09/21 11:36:51;;;;;;;11.00;8.23;;;;;;;;;;5009450;28;20462;-70
2021/09/21 11:39:27;;;;;;;14.20;7.97;;;;;;;;;;5060543;28;20616;-70
2021/09/21 11:41:53;;;;;;;9.63;7.40;;;;;;;;;;5056694;28;20497;-70
2021/09/21 11:44:20;;;;;;;11.57;7.50;;;;;;;;;;5055283;28;20787;-70
2021/09/21 11:46:46;;;;;;;8.73;7.13;;;;;;;;;;5052283;28;20432;-70
2021/09/21 11:49:12;;;;;;;10.50;7.60;;;;;;;;;;5052549;28;20429;-70
2021/09/21 11:51:38;;;;;;;12.47;8.80;;;;;;;;;;5045968;28;20564;-70
2021/09/21 11:54:05;;;;;;;9.03;7.30;;;;;;;;;;5047467;28;20929;-71
2021/09/21 11:56:31;;;;;;;12.00;7.93;;;;;;;;;;5048503;28;20465;-70
2021/09/21 11:59:01;;;;;;;13.37;7.57;;;;;;;;;;5051042;28;20465;-71
2021/09/21 12:01:28;;;;;;;10.43;7.70;;;;;;;;;;5057427;28;20414;-71
2021/09/21 12:03:54;;;;;;;13.77;7.40;;;;;;;;;;5055048;28;20422;-70
2021/09/21 12:06:31;;;;;;;11.77;8.10;;;;;;;;;;5040209;28;20454;-70
2021/09/21 12:09:00;;;;;;;11.30;8.10;;;;;;;;;;5054475;28;20515;-71
2021/09/21 12:11:26;;;;;;;10.83;8.37;;;;;;;;;;5055353;28;20432;-71
2021/09/21 12:13:53;;;;;;;9.70;8.30;;;;;;;;;;5054877;28;20433;-70
2021/09/21 12:16:20;;;;;;;11.43;7.33;;;;;;;;;;5043245;28;20465;-70
2021/09/21 12:18:46;;;;;;;13.53;9.30;;;;;;;;;;5049757;28;20461;-70
2021/09/21 12:21:16;;;;;;;10.70;7.53;;;;;;;;;;5051421;28;20837;-70
2021/09/21 12:23:44;;;;;;;12.60;8.20;;;;;;;;;;5048516;28;20880;-71
2021/09/21 12:26:10;;;;;;;11.70;8.90;;;;;;;;;;5045308;28;20533;-71
2021/09/21 12:28:36;;;;;;;9.70;7.23;;;;;;;;;;5051188;28;20480;-71
2021/09/21 12:31:07;;;;;;;11.13;8.17;;;;;;;;;;5049328;28;20434;-70
2021/09/21 12:33:38;;;;;;;11.97;8.83;;;;;;;;;;5040656;28;20429;-70
2021/09/21 12:36:04;;;;;;;9.50;7.57;;;;;;;;;;5043497;28;20449;-71
2021/09/21 12:38:31;;;;;;;12.60;9.07;;;;;;;;;;5046546;28;20457;-71
2021/09/21 12:40:58;;;;;;;11.13;8.73;;;;;;;;;;5054646;28;20442;-71
2021/09/21 12:43:24;;;;;;;8.87;7.17;;;;;;;;;;5048859;28;20437;-70
2021/09/21 12:45:52;;;;;;;8.73;7.40;;;;;;;;;;5053835;28;20822;-71
2021/09/21 12:48:21;;;;;;;10.10;8.17;;;;;;;;;;5044818;28;20486;-71
2021/09/21 12:50:52;;;;;;;14.83;8.73;;;;;;;;;;5034642;28;20426;-70
2021/09/21 12:53:19;;;;;;;9.10;6.83;;;;;;;;;;5035090;28;20440;-71
2021/09/21 12:55:45;;;;;;;8.33;6.97;;;;;;;;;;5038603;28;20485;-71
2021/09/21 12:58:13;;;;;;;10.47;8.17;;;;;;;;;;5034755;28;20465;-71
2021/09/21 13:00:40;;;;;;;8.30;6.97;;;;;;;;;;5040163;28;20525;-70
2021/09/21 13:03:07;;;;;;;7.77;6.60;;;;;;;;;;5037626;28;21273;-70
2021/09/21 13:05:33;;;;;;;12.13;7.10;;;;;;;;;;5032436;28;20814;-71
2021/09/21 13:07:59;;;;;;;10.60;8.03;;;;;;;;;;5034337;28;20414;-70
2021/09/21 13:10:26;;;;;;;10.67;7.30;;;;;;;;;;5038695;28;20421;-71
2021/09/21 13:12:59;;;;;;;10.87;7.10;;;;;;;;;;5038037;28;20427;-70
2021/09/21 13:15:26;;;;;;;8.90;7.40;;;;;;;;;;5032753;28;20824;-70
2021/09/21 13:17:53;;;;;;;8.83;6.63;;;;;;;;;;5033809;28;20460;-70
2021/09/21 13:20:19;;;;;;;8.60;6.43;;;;;;;;;;5029862;28;20479;-71
2021/09/21 13:22:45;;;;;;;9.10;6.70;;;;;;;;;;5035933;28;20429;-70
2021/09/21 13:25:11;;;;;;;10.17;7.97;;;;;;;;;;5032041;28;20965;-71
2021/09/21 13:27:37;;;;;;;10.83;8.00;;;;;;;;;;5037645;28;20448;-70
2021/09/21 13:30:04;;;;;;;9.13;6.43;;;;;;;;;;5032064;28;20518;-70
2021/09/21 13:32:30;;;;;;;9.23;6.90;;;;;;;;;;5029227;28;20668;-71
2021/09/21 13:34:56;;;;;;;11.23;7.43;;;;;;;;;;5037378;28;20453;-71
2021/09/21 13:37:22;;;;;;;10.33;7.10;;;;;;;;;;5038678;28;20464;-71
2021/09/21 13:39:48;;;;;;;11.17;7.87;;;;;;;;;;5041956;28;20929;-70
2021/09/21 13:42:14;;;;;;;9.97;7.37;;;;;;;;;;5037821;28;20450;-72
2021/09/21 13:44:41;;;;;;;10.80;6.93;;;;;;;;;;5032778;28;20427;-70
2021/09/21 13:47:07;;;;;;;10.03;6.97;;;;;;;;;;5030211;28;20425;-70
2021/09/21 13:49:33;;;;;;;9.33;6.87;;;;;;;;;;5027405;28;20445;-71
2021/09/21 13:51:59;;;;;;;9.60;7.43;;;;;;;;;;5035071;28;20441;-71
2021/09/21 13:54:25;;;;;;;10.03;7.93;;;;;;;;;;5028829;28;20430;-70
2021/09/21 13:56:51;;;;;;;9.23;7.30;;;;;;;;;;5038772;28;20434;-71
2021/09/21 13:59:18;;;;;;;8.63;6.53;;;;;;;;;;5038552;28;20500;-70
2021/09/21 14:01:44;;;;;;;11.10;8.03;;;;;;;;;;5045752;28;20414;-71
2021/09/21 14:04:10;;;;;;;8.37;6.83;;;;;;;;;;5032108;28;20426;-71
2021/09/21 14:06:36;;;;;;;11.57;7.63;;;;;;;;;;5031626;28;20452;-71
2021/09/21 14:09:03;;;;;;;11.10;6.77;;;;;;;;;;5028605;28;20926;-71
2021/09/21 14:11:30;;;;;;;8.70;7.50;;;;;;;;;;5039253;28;20435;-71
2021/09/21 14:13:56;;;;;;;8.93;6.77;;;;;;;;;;5041089;28;20434;-71
2021/09/21 14:16:22;;;;;;;10.10;6.90;;;;;;;;;;5034725;28;20450;-70
2021/09/21 14:18:48;;;;;;;11.20;8.40;;;;;;;;;;5034258;28;20463;-70
2021/09/21 14:21:15;;;;;;;8.77;7.40;;;;;;;;;;5032307;28;20515;-71
2021/09/21 14:23:41;;;;;;;10.53;8.10;;;;;;;;;;5035639;28;20468;-70
2021/09/21 14:26:07;;;;;;;10.13;7.30;;;;;;;;;;5022535;28;20600;-71
2021/09/21 14:28:34;;;;;;;9.03;7.57;;;;;;;;;;5036137;28;20848;-69
2021/09/21 14:31:01;;;;;;;7.97;7.13;;;;;;;;;;5029274;28;20789;-70
2021/09/21 14:33:27;;;;;;;11.00;6.53;;;;;;;;;;5042247;28;20414;-70
2021/09/21 14:35:53;;;;;;;10.93;7.50;;;;;;;;;;5032652;28;21051;-70
2021/09/21 14:38:20;;;;;;;10.10;6.80;;;;;;;;;;5032840;28;20974;-70
2021/09/21 14:40:47;;;;;;;11.43;7.47;;;;;;;;;;5030238;28;20430;-70
2021/09/21 14:43:13;;;;;;;7.83;7.03;;;;;;;;;;5037951;28;20926;-70
2021/09/21 14:45:39;;;;;;;11.77;8.50;;;;;;;;;;5034816;28;20449;-70
2021/09/21 14:48:06;;;;;;;7.40;6.50;;;;;;;;;;5032487;28;20829;-70